Time;durP1;ratioP1;P1;durP2;ratioP2;P2;SDS_P1;SDS_P2;PMS_P1;PMS_P2;Temp;Humidity;BMP_temperature;BMP_pressure;BME280_temperature;BME280_humidity;BME280_pressure;Samples;Min_cycle;Max_cycle;Signal;HPM_P1;HPM_P2
2023/08/23 00:01:47;;;;;;;24.23;11.50;;;15.40;99.90;;;;;;5061611;28;20212;-74
2023/08/23 00:04:12;;;;;;;21.40;12.40;;;15.40;99.90;;;;;;5061886;28;20045;-74
2023/08/23 00:06:38;;;;;;;24.53;12.93;;;15.40;99.90;;;;;;5060808;28;20040;-75
2023/08/23 00:09:05;;;;;;;26.08;12.77;;;15.30;99.90;;;;;;5060258;28;20421;-75
2023/08/23 00:11:31;;;;;;;;;;;15.30;99.90;;;;;;5058665;28;20096;-74
2023/08/23 00:13:56;;;;;;;28.23;12.97;;;15.20;99.90;;;;;;5092075;28;19921;-75
2023/08/23 00:16:22;;;;;;;20.03;11.17;;;15.20;99.90;;;;;;5060167;28;20511;-75
2023/08/23 00:18:50;;;;;;;19.30;11.13;;;15.10;99.90;;;;;;5060143;28;20482;-75
2023/08/23 00:21:15;;;;;;;24.13;12.15;;;15.00;99.90;;;;;;5058291;28;20040;-75
2023/08/23 00:23:42;;;;;;;25.85;10.85;;;15.00;99.90;;;;;;5090271;28;20114;-75
2023/08/23 00:26:07;;;;;;;19.60;11.20;;;15.00;99.90;;;;;;5055758;28;20132;-76
2023/08/23 00:28:33;;;;;;;20.13;10.52;;;14.90;99.90;;;;;;5057043;28;20051;-75
2023/08/23 00:30:59;;;;;;;22.60;11.60;;;15.00;99.90;;;;;;5040070;28;20091;-75
2023/08/23 00:33:25;;;;;;;21.13;10.80;;;14.90;99.90;;;;;;5056598;28;20056;-75
2023/08/23 00:35:50;;;;;;;27.17;13.07;;;14.90;99.90;;;;;;5039933;28;20094;-75
2023/08/23 00:38:16;;;;;;;27.33;13.70;;;14.90;99.90;;;;;;5056398;28;20055;-74
2023/08/23 00:40:42;;;;;;;27.80;13.13;;;14.90;99.90;;;;;;5056797;28;20132;-74
2023/08/23 00:43:08;;;;;;;31.60;14.40;;;14.90;99.90;;;;;;5056549;28;20045;-74
2023/08/23 00:45:37;;;;;;;27.92;14.45;;;14.90;99.90;;;;;;5056388;28;20055;-75
2023/08/23 00:48:05;;;;;;;26.67;13.40;;;14.90;99.90;;;;;;5056054;28;20040;-74
2023/08/23 00:50:35;;;;;;;25.10;12.75;;;14.90;99.90;;;;;;5055850;28;20509;-75
2023/08/23 00:53:02;;;;;;;28.88;13.73;;;14.90;99.90;;;;;;5056787;28;20440;-75
2023/08/23 00:55:29;;;;;;;26.30;12.93;;;14.90;99.90;;;;;;5055259;28;20045;-74
2023/08/23 00:57:55;;;;;;;27.83;14.00;;;14.90;99.90;;;;;;5089892;28;20472;-75
2023/08/23 01:00:21;;;;;;;27.50;14.52;;;14.80;99.90;;;;;;5038378;28;20052;-75
2023/08/23 01:02:47;;;;;;;25.67;13.82;;;14.80;99.90;;;;;;5056706;28;20053;-76
2023/08/23 01:05:14;;;;;;;25.67;14.07;;;14.80;99.90;;;;;;5055691;28;20055;-74
2023/08/23 01:07:46;;;;;;;;;;;14.70;99.90;;;;;;5056450;28;20045;-74
2023/08/23 01:10:35;;;;;;;23.00;11.77;;;14.70;99.90;;;;;;5055035;28;19967;-75
2023/08/23 01:13:04;;;;;;;20.92;11.02;;;14.60;99.90;;;;;;5044410;28;20049;-75
2023/08/23 01:15:31;;;;;;;24.52;11.32;;;14.50;99.90;;;;;;5055879;28;20091;-75
2023/08/23 01:18:00;;;;;;;17.80;9.98;;;14.50;99.90;;;;;;5056472;28;20474;-75
2023/08/23 01:20:27;;;;;;;15.38;8.45;;;14.40;99.90;;;;;;5055749;28;20498;-74
2023/08/23 01:23:10;;;;;;;17.70;9.77;;;14.30;99.90;;;;;;5055763;28;20045;-76
2023/08/23 01:25:35;;;;;;;16.95;9.32;;;14.30;99.90;;;;;;5056244;28;20045;-75
2023/08/23 01:28:01;;;;;;;21.55;10.23;;;14.30;99.90;;;;;;5055729;28;20064;-75
2023/08/23 01:30:28;;;;;;;22.48;12.85;;;14.30;99.90;;;;;;5038181;28;20063;-75
2023/08/23 01:33:07;;;;;;;26.58;13.23;;;14.30;99.90;;;;;;5055971;28;20045;-75
2023/08/23 01:35:43;;;;;;;27.52;13.30;;;14.30;99.90;;;;;;5055746;28;20052;-75
2023/08/23 01:38:11;;;;;;;29.83;15.13;;;14.30;99.90;;;;;;5056229;28;20440;-74
2023/08/23 01:40:38;;;;;;;33.10;16.40;;;14.30;99.90;;;;;;5055253;28;20053;-75
2023/08/23 01:43:04;;;;;;;31.50;15.57;;;14.30;99.90;;;;;;5054310;28;20040;-75
2023/08/23 01:45:30;;;;;;;24.77;14.27;;;14.30;99.90;;;;;;5054002;28;20045;-74
2023/08/23 01:47:55;;;;;;;23.83;14.05;;;14.30;99.90;;;;;;5053877;28;20099;-74
2023/08/23 01:50:21;;;;;;;28.25;14.63;;;14.30;99.90;;;;;;5037315;28;20053;-75
2023/08/23 01:52:47;;;;;;;26.15;14.70;;;14.30;99.90;;;;;;5088486;28;20140;-74
2023/08/23 01:55:17;;;;;;;29.33;14.20;;;14.30;99.90;;;;;;5053744;28;20037;-74
2023/08/23 01:57:47;;;;;;;31.35;16.55;;;14.30;99.90;;;;;;5087863;28;20053;-74
2023/08/23 02:00:13;;;;;;;29.48;15.30;;;14.30;99.90;;;;;;5087453;28;20041;-73
2023/08/23 02:02:39;;;;;;;28.77;15.57;;;14.40;99.90;;;;;;5054967;28;20041;-74
2023/08/23 02:05:05;;;;;;;32.05;16.60;;;14.40;99.90;;;;;;5055444;28;20801;-75
2023/08/23 02:07:30;;;;;;;28.30;16.47;;;14.50;99.90;;;;;;5053281;28;20051;-75
2023/08/23 02:09:56;;;;;;;29.83;17.10;;;14.50;99.90;;;;;;5053621;28;20120;-75
2023/08/23 02:12:22;;;;;;;31.85;17.20;;;14.50;99.90;;;;;;5054140;28;20045;-74
2023/08/23 02:14:47;;;;;;;33.03;18.10;;;14.50;99.90;;;;;;5054551;28;20053;-75
2023/08/23 02:17:13;;;;;;;37.85;19.58;;;14.50;99.90;;;;;;5054706;28;20055;-75
2023/08/23 02:19:39;;;;;;;37.85;18.63;;;14.50;99.90;;;;;;5055471;28;20051;-76
2023/08/23 02:22:05;;;;;;;34.75;19.27;;;14.50;99.90;;;;;;5054728;28;20513;-75
2023/08/23 02:24:30;;;;;;;35.97;19.25;;;14.50;99.90;;;;;;5053232;28;20045;-74
2023/08/23 02:26:56;;;;;;;36.20;19.75;;;14.50;99.90;;;;;;5053324;28;20043;-75
2023/08/23 02:29:22;;;;;;;39.60;21.00;;;14.50;99.90;;;;;;5036580;28;20494;-74
2023/08/23 02:31:47;;;;;;;40.70;21.48;;;14.60;99.90;;;;;;5054989;28;20127;-74
2023/08/23 02:34:13;;;;;;;35.90;19.67;;;14.60;99.90;;;;;;5053550;28;20052;-75
2023/08/23 02:36:39;;;;;;;38.92;19.95;;;14.60;99.90;;;;;;5054355;28;20087;-74
2023/08/23 02:39:05;;;;;;;42.55;20.17;;;14.70;99.90;;;;;;5054373;28;20056;-75
2023/08/23 02:41:30;;;;;;;41.55;21.73;;;14.60;99.90;;;;;;5037431;28;20044;-74
2023/08/23 02:43:56;;;;;;;36.20;19.83;;;14.60;99.90;;;;;;5052925;28;20044;-74
2023/08/23 02:46:22;;;;;;;37.85;20.02;;;14.60;99.90;;;;;;5036348;28;20045;-74
2023/08/23 02:48:47;;;;;;;34.72;18.58;;;14.60;99.90;;;;;;5054741;28;20044;-75
2023/08/23 02:51:13;;;;;;;36.90;20.08;;;14.60;99.90;;;;;;5054134;28;20040;-74
2023/08/23 02:53:39;;;;;;;38.03;21.00;;;14.50;99.90;;;;;;5053712;28;20044;-75
2023/08/23 02:56:04;;;;;;;40.03;20.05;;;14.50;99.90;;;;;;5054754;28;20120;-75
2023/08/23 02:58:30;;;;;;;46.00;22.55;;;14.50;99.90;;;;;;5086195;28;20045;-75
2023/08/23 03:00:56;;;;;;;44.67;21.90;;;14.50;99.90;;;;;;5037174;28;20051;-75
2023/08/23 03:03:22;;;;;;;39.13;21.38;;;14.50;99.90;;;;;;5053880;28;20049;-74
2023/08/23 03:05:57;;;;;;;34.63;19.50;;;14.50;99.90;;;;;;5052594;28;20037;-75
2023/08/23 03:08:24;;;;;;;35.55;20.17;;;14.50;99.90;;;;;;5054401;28;20049;-73
2023/08/23 03:10:50;;;;;;;40.33;20.55;;;14.50;99.90;;;;;;5054336;28;20065;-75
2023/08/23 03:13:16;;;;;;;37.03;19.70;;;14.50;99.90;;;;;;5087520;28;20049;-74
2023/08/23 03:15:42;;;;;;;39.60;19.70;;;14.50;99.90;;;;;;5055331;28;20047;-74
2023/08/23 03:18:08;;;;;;;39.80;20.73;;;14.50;99.90;;;;;;5036122;28;20694;-74
2023/08/23 03:20:34;;;;;;;36.03;20.13;;;14.50;99.90;;;;;;5052382;28;20049;-74
2023/08/23 03:23:00;;;;;;;41.35;20.33;;;14.50;99.90;;;;;;5052838;28;20049;-75
2023/08/23 03:25:25;;;;;;;36.78;19.02;;;14.40;99.90;;;;;;5053356;28;20041;-75
2023/08/23 03:27:54;;;;;;;38.97;18.95;;;14.40;99.90;;;;;;5053472;28;20439;-74
2023/08/23 03:30:20;;;;;;;43.38;20.45;;;14.40;99.90;;;;;;5054152;28;20366;-74
2023/08/23 03:32:46;;;;;;;40.60;19.50;;;14.40;99.90;;;;;;5054206;28;20123;-74
2023/08/23 03:35:12;;;;;;;37.97;19.58;;;14.40;99.90;;;;;;5053404;28;20545;-74
2023/08/23 03:37:37;;;;;;;50.28;20.60;;;14.40;99.90;;;;;;5052124;28;20041;-74
2023/08/23 03:40:03;;;;;;;50.80;21.30;;;14.40;99.90;;;;;;5053125;28;20045;-73
2023/08/23 03:42:30;;;;;;;45.47;19.42;;;14.40;99.90;;;;;;5053100;28;20074;-74
2023/08/23 03:44:55;;;;;;;44.65;20.55;;;14.40;99.90;;;;;;5051999;28;20048;-74
2023/08/23 03:47:21;;;;;;;43.50;20.52;;;14.30;99.90;;;;;;5052023;28;20045;-74
2023/08/23 03:49:50;;;;;;;58.97;21.23;;;14.30;99.90;;;;;;5036325;28;20063;-74
2023/08/23 03:52:16;;;;;;;51.65;20.85;;;14.30;99.90;;;;;;5051641;28;20041;-73
2023/08/23 03:54:41;;;;;;;46.97;20.42;;;14.30;99.90;;;;;;5053169;28;20048;-74
2023/08/23 03:57:07;;;;;;;52.00;20.10;;;14.30;99.90;;;;;;5051912;28;20048;-74
2023/08/23 03:59:33;;;;;;;44.22;20.33;;;14.30;99.90;;;;;;5053053;28;20060;-74
2023/08/23 04:01:59;;;;;;;48.80;20.95;;;14.30;99.90;;;;;;5052018;28;20075;-74
2023/08/23 04:04:24;;;;;;;46.00;20.80;;;14.30;99.90;;;;;;5053822;28;20440;-75
2023/08/23 04:06:50;;;;;;;49.30;20.73;;;14.20;99.90;;;;;;5053041;28;20041;-74
2023/08/23 04:09:16;;;;;;;44.47;20.65;;;14.20;99.90;;;;;;5053321;28;20044;-75
2023/08/23 04:11:42;;;;;;;42.42;19.67;;;14.30;99.90;;;;;;5051707;28;20140;-75
2023/08/23 04:14:08;;;;;;;40.72;19.33;;;14.30;99.90;;;;;;5052063;28;20132;-73
2023/08/23 04:16:33;;;;;;;43.75;19.80;;;14.30;99.90;;;;;;5051655;28;20542;-74
2023/08/23 04:18:59;;;;;;;44.65;21.25;;;14.30;99.90;;;;;;5053135;28;20088;-74
2023/08/23 04:21:25;;;;;;;38.67;19.48;;;14.30;99.90;;;;;;5053381;28;20052;-74
2023/08/23 04:23:51;;;;;;;45.70;19.80;;;14.30;99.90;;;;;;5052787;28;20045;-74
2023/08/23 04:26:17;;;;;;;43.47;19.67;;;14.30;99.90;;;;;;5051669;28;20055;-74
2023/08/23 04:28:43;;;;;;;38.22;19.38;;;14.40;99.90;;;;;;5053068;28;20124;-73
2023/08/23 04:31:09;;;;;;;39.25;18.65;;;14.30;99.90;;;;;;5057137;28;20388;-74
2023/08/23 04:33:35;;;;;;;40.97;19.92;;;14.40;99.90;;;;;;5054885;28;20053;-73
2023/08/23 04:36:04;;;;;;;37.53;18.48;;;14.40;99.90;;;;;;5038808;28;20041;-75
2023/08/23 04:38:31;;;;;;;38.10;18.85;;;14.40;99.90;;;;;;5055216;28;20115;-74
2023/08/23 04:41:04;;;;;;;38.45;18.65;;;14.40;99.90;;;;;;5056928;28;20080;-74
2023/08/23 04:43:30;;;;;;;37.17;18.08;;;14.40;99.90;;;;;;5057427;28;20385;-73
2023/08/23 04:45:56;;;;;;;37.88;18.23;;;14.50;99.90;;;;;;5038506;28;20036;-74
2023/08/23 04:48:23;;;;;;;37.30;17.55;;;14.50;99.90;;;;;;5056302;28;20132;-74
2023/08/23 04:50:55;;;;;;;;;;;14.50;99.90;;;;;;5055378;28;20481;-74
2023/08/23 04:53:21;;;;;;;32.75;16.23;;;14.50;99.90;;;;;;5056169;28;19988;-73
2023/08/23 04:55:48;;;;;;;33.47;16.88;;;14.60;99.90;;;;;;5054968;28;20048;-73
2023/08/23 04:58:14;;;;;;;30.48;15.52;;;14.60;99.90;;;;;;5055336;28;20136;-73
2023/08/23 05:00:39;;;;;;;29.35;15.50;;;14.60;99.90;;;;;;5056785;28;20132;-72
2023/08/23 05:03:06;;;;;;;32.03;16.70;;;14.70;99.90;;;;;;5055733;28;20461;-73
2023/08/23 05:05:31;;;;;;;33.35;16.38;;;14.70;99.90;;;;;;5054780;28;20128;-74
2023/08/23 05:07:57;;;;;;;36.92;17.85;;;14.70;99.90;;;;;;5055764;28;20128;-75
2023/08/23 05:10:23;;;;;;;37.17;17.65;;;14.70;99.90;;;;;;5055747;28;20060;-73
2023/08/23 05:12:49;;;;;;;34.08;16.45;;;14.70;99.90;;;;;;5053908;28;20149;-73
2023/08/23 05:15:14;;;;;;;33.92;17.63;;;14.70;99.90;;;;;;5054804;28;20057;-73
2023/08/23 05:17:40;;;;;;;35.55;16.70;;;14.80;99.90;;;;;;5055723;28;20053;-73
2023/08/23 05:20:07;;;;;;;34.72;17.30;;;14.80;99.90;;;;;;5054371;28;20489;-74
2023/08/23 05:22:32;;;;;;;39.08;17.35;;;14.80;99.90;;;;;;5055590;28;20080;-73
2023/08/23 05:24:58;;;;;;;36.67;17.08;;;14.80;99.90;;;;;;5054272;28;20107;-73
2023/08/23 05:27:24;;;;;;;35.65;17.35;;;14.80;99.90;;;;;;5055664;28;20044;-74
2023/08/23 05:29:50;;;;;;;39.63;17.95;;;14.80;99.90;;;;;;5055203;28;20481;-74
2023/08/23 05:32:16;;;;;;;45.00;18.27;;;14.80;99.90;;;;;;5054808;28;20106;-75
2023/08/23 05:34:42;;;;;;;40.83;19.63;;;14.80;99.90;;;;;;5055570;28;20041;-75
2023/08/23 05:37:07;;;;;;;37.83;18.92;;;14.80;99.90;;;;;;5054409;28;20082;-74
2023/08/23 05:39:33;;;;;;;42.03;19.08;;;14.80;99.90;;;;;;5038107;28;20045;-75
2023/08/23 05:41:59;;;;;;;43.63;20.30;;;14.80;99.90;;;;;;5055203;28;20496;-75
2023/08/23 05:44:25;;;;;;;47.92;21.42;;;14.70;99.90;;;;;;5053873;28;20055;-75
2023/08/23 05:46:50;;;;;;;42.78;20.38;;;14.70;99.90;;;;;;5037174;28;20045;-74
2023/08/23 05:49:16;;;;;;;47.35;20.10;;;14.70;99.90;;;;;;5037387;28;20132;-76
2023/08/23 05:51:42;;;;;;;47.28;19.02;;;14.70;99.90;;;;;;5054981;28;20052;-74
2023/08/23 05:54:08;;;;;;;38.22;18.63;;;14.70;99.90;;;;;;5037230;28;20045;-74
2023/08/23 05:56:34;;;;;;;47.75;19.27;;;14.80;99.90;;;;;;5054064;28;20045;-75
2023/08/23 05:59:02;;;;;;;41.88;19.10;;;14.80;99.90;;;;;;5055355;28;20045;-75
2023/08/23 06:01:28;;;;;;;49.10;21.23;;;14.90;99.90;;;;;;5055076;28;20041;-74
2023/08/23 06:03:54;;;;;;;44.08;20.33;;;14.90;99.90;;;;;;5037195;28;20134;-74
2023/08/23 06:06:20;;;;;;;41.33;19.48;;;15.00;99.90;;;;;;5054832;28;20473;-78
2023/08/23 06:09:01;;;;;;;48.15;19.88;;;15.10;99.90;;;;;;5055083;28;20128;-77
2023/08/23 06:11:26;;;;;;;42.88;19.67;;;15.10;99.90;;;;;;5070238;28;20085;-76
2023/08/23 06:13:55;;;;;;;43.88;20.30;;;15.20;99.90;;;;;;5053996;28;20085;-75
2023/08/23 06:16:23;;;;;;;48.83;19.52;;;15.30;99.90;;;;;;5087166;28;20045;-76
2023/08/23 06:18:49;;;;;;;44.05;20.08;;;15.40;99.90;;;;;;5053329;28;20048;-75
2023/08/23 06:21:15;;;;;;;46.03;20.10;;;15.50;99.90;;;;;;5054260;28;20378;-75
2023/08/23 06:23:43;;;;;;;45.25;19.08;;;15.50;99.90;;;;;;5055029;28;20053;-75
2023/08/23 06:26:10;;;;;;;49.90;20.90;;;15.50;99.90;;;;;;5053041;28;20052;-76
2023/08/23 06:28:35;;;;;;;46.97;19.27;;;15.60;99.90;;;;;;5037625;28;20049;-75
2023/08/23 06:31:01;;;;;;;47.90;19.83;;;15.70;99.90;;;;;;5053073;28;20527;-74
2023/08/23 06:33:27;;;;;;;45.10;19.77;;;15.80;99.90;;;;;;5054052;28;20052;-75
2023/08/23 06:35:53;;;;;;;41.90;18.70;;;15.80;99.90;;;;;;5054929;28;20049;-75
2023/08/23 06:38:18;;;;;;;47.63;19.27;;;15.90;99.90;;;;;;5054315;28;20041;-75
2023/08/23 06:40:44;;;;;;;42.63;18.45;;;16.00;99.90;;;;;;5054261;28;20049;-75
2023/08/23 06:43:23;;;;;;;45.30;17.65;;;16.10;99.90;;;;;;5053037;28;20439;-75
2023/08/23 06:45:49;;;;;;;41.92;18.85;;;16.10;99.90;;;;;;5052585;28;20045;-75
2023/08/23 06:48:14;;;;;;;44.20;18.45;;;16.20;99.90;;;;;;5054183;28;20048;-75
2023/08/23 06:50:40;;;;;;;40.60;18.10;;;16.30;99.90;;;;;;5069692;28;20045;-74
2023/08/23 06:53:06;;;;;;;40.80;17.50;;;16.30;99.90;;;;;;5052015;28;20056;-74
2023/08/23 06:55:32;;;;;;;38.58;17.77;;;16.40;99.90;;;;;;5053060;28;20132;-77
2023/08/23 06:57:58;;;;;;;40.42;16.80;;;16.50;99.90;;;;;;5053953;28;20068;-75
2023/08/23 07:00:27;;;;;;;43.57;17.33;;;16.60;99.90;;;;;;5052756;28;20041;-75
2023/08/23 07:02:55;;;;;;;43.10;17.08;;;16.70;99.90;;;;;;5052595;28;20060;-75
2023/08/23 07:05:24;;;;;;;39.78;17.45;;;16.80;99.90;;;;;;5053240;28;20131;-74
2023/08/23 07:07:50;;;;;;;45.67;19.25;;;16.90;99.90;;;;;;5053710;28;20082;-74
2023/08/23 07:10:16;;;;;;;44.13;18.60;;;17.00;99.90;;;;;;5053746;28;20103;-74
2023/08/23 07:12:41;;;;;;;39.83;17.90;;;17.10;99.90;;;;;;5052433;28;20065;-75
2023/08/23 07:15:07;;;;;;;39.10;16.83;;;17.20;99.90;;;;;;5052578;28;20080;-72
2023/08/23 07:17:35;;;;;;;38.53;17.30;;;17.30;99.90;;;;;;5053655;28;20076;-75
2023/08/23 07:20:00;;;;;;;42.47;16.73;;;17.50;99.90;;;;;;5035967;28;20047;-72
2023/08/23 07:22:26;;;;;;;37.77;16.77;;;17.80;99.90;;;;;;5053286;28;20052;-74
2023/08/23 07:24:52;;;;;;;36.60;17.17;;;18.00;99.90;;;;;;5086307;28;20049;-73
2023/08/23 07:27:18;;;;;;;36.97;16.70;;;18.20;99.90;;;;;;5053376;28;20044;-74
2023/08/23 07:29:43;;;;;;;38.77;17.37;;;18.30;99.90;;;;;;5053221;28;20401;-74
2023/08/23 07:32:09;;;;;;;36.70;16.77;;;18.40;99.90;;;;;;5052624;28;20048;-74
2023/08/23 07:34:35;;;;;;;32.80;15.83;;;18.60;99.90;;;;;;5069236;28;20067;-73
2023/08/23 07:37:01;;;;;;;36.55;16.50;;;18.70;99.90;;;;;;5053831;28;20504;-74
2023/08/23 07:39:27;;;;;;;40.03;16.47;;;18.80;99.90;;;;;;5052152;28;20045;-73
2023/08/23 07:41:54;;;;;;;35.63;15.20;;;18.90;99.90;;;;;;5052045;28;20061;-74
2023/08/23 07:44:20;;;;;;;37.35;15.38;;;18.90;99.90;;;;;;5053096;28;20056;-73
2023/08/23 07:46:45;;;;;;;36.53;16.50;;;19.00;99.90;;;;;;5051895;28;20045;-74
2023/08/23 07:49:15;;;;;;;39.07;17.20;;;19.00;99.90;;;;;;5053099;28;20045;-72
2023/08/23 07:51:41;;;;;;;35.42;15.75;;;19.20;99.90;;;;;;5052202;28;20151;-72
2023/08/23 07:54:07;;;;;;;35.60;15.45;;;19.20;99.90;;;;;;5020032;28;20076;-73
2023/08/23 07:56:33;;;;;;;32.93;14.07;;;19.10;99.90;;;;;;5053612;28;20049;-75
2023/08/23 07:59:02;;;;;;;41.40;15.82;;;19.00;99.90;;;;;;5052612;28;20045;-73
2023/08/23 08:01:28;;;;;;;39.90;16.33;;;19.00;99.90;;;;;;5052959;28;20128;-73
2023/08/23 08:03:54;;;;;;;37.73;15.67;;;19.00;99.90;;;;;;5053014;28;20136;-73
2023/08/23 08:06:19;;;;;;;38.90;15.70;;;19.10;99.90;;;;;;5057251;28;20076;-72
2023/08/23 08:08:45;;;;;;;34.43;15.00;;;19.10;99.90;;;;;;5057008;28;20051;-74
2023/08/23 08:11:12;;;;;;;32.27;14.67;;;19.20;99.90;;;;;;5057460;28;20067;-73
2023/08/23 08:13:38;;;;;;;41.50;15.73;;;19.30;99.90;;;;;;5090483;28;20063;-73
2023/08/23 08:16:11;;;;;;;35.75;15.48;;;19.40;99.90;;;;;;5057718;28;20059;-73
2023/08/23 08:18:37;;;;;;;33.17;15.35;;;19.40;99.90;;;;;;5056325;28;20111;-74
2023/08/23 08:21:04;;;;;;;35.22;14.43;;;19.50;99.90;;;;;;5089337;28;20056;-74
2023/08/23 08:23:30;;;;;;;31.25;12.68;;;19.60;99.90;;;;;;5089490;28;20104;-73
2023/08/23 08:25:56;;;;;;;34.30;13.70;;;19.70;99.90;;;;;;5056095;28;20053;-73
2023/08/23 08:28:22;;;;;;;27.80;13.00;;;19.80;99.90;;;;;;5055762;28;20052;-71
2023/08/23 08:30:48;;;;;;;30.17;13.37;;;19.80;99.90;;;;;;5056452;28;20045;-73
2023/08/23 08:33:13;;;;;;;31.73;13.60;;;19.90;99.90;;;;;;5056288;28;20048;-73
2023/08/23 08:35:39;;;;;;;33.03;12.77;;;20.00;99.90;;;;;;5056691;28;20088;-73
2023/08/23 08:38:06;;;;;;;31.40;13.13;;;20.10;99.90;;;;;;5089288;28;20385;-74
2023/08/23 08:40:32;;;;;;;27.38;12.63;;;20.20;99.90;;;;;;5056711;28;20045;-73
2023/08/23 08:42:59;;;;;;;26.60;11.85;;;20.20;99.90;;;;;;5089046;28;20048;-73
2023/08/23 08:45:25;;;;;;;33.35;12.18;;;20.30;99.90;;;;;;5038621;28;20051;-73
2023/08/23 08:47:51;;;;;;;26.73;11.63;;;20.40;99.90;;;;;;5038476;28;20045;-72
2023/08/23 08:50:17;;;;;;;27.27;12.23;;;20.40;99.90;;;;;;5055312;28;20795;-73
2023/08/23 08:52:50;;;;;;;27.27;12.23;;;20.60;99.90;;;;;;5057636;28;20103;-72
2023/08/23 08:55:18;;;;;;;25.40;10.57;;;20.70;99.90;;;;;;5056831;28;20057;-73
2023/08/23 08:57:46;;;;;;;26.25;10.52;;;20.70;99.90;;;;;;5056166;28;20041;-74
2023/08/23 09:00:12;;;;;;;25.30;11.65;;;20.90;99.90;;;;;;5056060;28;20098;-72
2023/08/23 09:02:40;;;;;;;31.67;11.60;;;21.00;99.90;;;;;;5055539;28;20098;-73
2023/08/23 09:05:06;;;;;;;27.50;10.88;;;21.10;99.90;;;;;;5088648;28;20045;-72
2023/08/23 09:07:32;;;;;;;;;;;21.20;99.90;;;;;;5056417;28;20132;-72
2023/08/23 09:09:58;;;;;;;26.23;10.67;;;21.20;99.90;;;;;;5055890;28;20093;-73
2023/08/23 09:12:24;;;;;;;22.20;9.67;;;21.30;99.90;;;;;;5055356;28;20527;-73
2023/08/23 09:14:50;;;;;;;25.27;9.80;;;21.40;99.90;;;;;;5055741;28;20292;-74
2023/08/23 09:17:19;;;;;;;27.15;9.07;;;21.50;99.90;;;;;;5054317;28;20377;-73
2023/08/23 09:19:45;;;;;;;19.63;9.80;;;21.60;99.90;;;;;;5055660;28;20163;-73
2023/08/23 09:22:11;;;;;;;20.07;7.67;;;21.70;99.90;;;;;;5038054;28;20041;-74
2023/08/23 09:24:37;;;;;;;22.33;7.80;;;21.70;99.90;;;;;;5054862;28;20044;-74
2023/08/23 09:27:03;;;;;;;23.03;9.67;;;21.70;99.90;;;;;;5054939;28;20052;-73
2023/08/23 09:29:28;;;;;;;26.40;9.13;;;21.80;99.90;;;;;;5055828;28;20106;-74
2023/08/23 09:31:58;;;;;;;23.80;8.13;;;21.90;99.90;;;;;;5054457;28;20041;-73
2023/08/23 09:34:24;;;;;;;22.75;8.10;;;22.00;99.90;;;;;;5055325;28;20045;-74
2023/08/23 09:36:49;;;;;;;22.57;8.60;;;22.00;99.90;;;;;;5055171;28;20060;-74
2023/08/23 09:39:18;;;;;;;22.13;8.47;;;22.10;99.90;;;;;;5055642;28;20142;-73
2023/08/23 09:41:44;;;;;;;20.75;6.93;;;22.10;99.90;;;;;;5038024;28;20053;-73
2023/08/23 09:44:10;;;;;;;24.83;7.73;;;22.20;99.90;;;;;;5055790;28;20060;-71
2023/08/23 09:46:39;;;;;;;23.13;8.00;;;22.30;99.90;;;;;;5054019;28;20095;-73
2023/08/23 09:49:05;;;;;;;17.50;7.07;;;22.30;99.90;;;;;;5054832;28;20509;-72
2023/08/23 09:51:35;;;;;;;18.55;6.35;;;22.40;99.90;;;;;;5053782;28;20488;-74
2023/08/23 09:54:11;;;;;;;19.08;7.00;;;22.50;99.90;;;;;;5055816;28;20049;-74
2023/08/23 09:56:37;;;;;;;16.67;6.45;;;22.60;99.90;;;;;;5055329;28;20128;-73
2023/08/23 09:59:03;;;;;;;16.55;5.30;;;22.70;99.90;;;;;;5053705;28;20052;-72
2023/08/23 10:01:30;;;;;;;13.50;4.97;;;22.80;99.90;;;;;;5053831;28;20056;-74
2023/08/23 10:03:55;;;;;;;15.80;6.05;;;22.80;99.90;;;;;;5053628;28;20087;-74
2023/08/23 10:06:22;;;;;;;16.73;5.63;;;22.90;99.90;;;;;;5053536;28;20045;-73
2023/08/23 10:08:48;;;;;;;;;;;22.90;99.90;;;;;;5055171;28;20052;-73
2023/08/23 10:11:18;;;;;;;18.40;5.22;;;22.90;99.90;;;;;;5086758;28;19921;-71
2023/08/23 10:13:45;;;;;;;16.15;4.90;;;22.90;99.90;;;;;;5054717;28;20060;-74
2023/08/23 10:16:13;;;;;;;16.45;6.57;;;22.90;99.90;;;;;;5053424;28;20080;-74
2023/08/23 10:18:40;;;;;;;18.17;8.07;;;23.00;99.90;;;;;;5054810;28;20053;-73
2023/08/23 10:21:05;;;;;;;;;;;23.10;99.90;;;;;;5053705;28;20101;-74
2023/08/23 10:23:34;;;;;;;25.90;9.02;;;23.10;99.90;;;;;;5069825;28;20007;-72
2023/08/23 10:26:01;;;;;;;19.73;7.75;;;23.20;99.90;;;;;;5036694;28;20187;-74
2023/08/23 10:28:27;;;;;;;16.35;6.15;;;23.30;99.90;;;;;;5054672;28;20099;-73
2023/08/23 10:30:53;;;;;;;23.83;8.15;;;23.40;99.90;;;;;;5052782;28;20566;-72
2023/08/23 10:33:19;;;;;;;23.87;8.80;;;23.50;99.90;;;;;;5054318;28;20145;-72
2023/08/23 10:35:46;;;;;;;25.98;10.48;;;23.60;99.90;;;;;;5054311;28;20075;-73
2023/08/23 10:38:13;;;;;;;26.35;10.93;;;23.80;99.90;;;;;;5054218;28;20084;-75
2023/08/23 10:40:40;;;;;;;;;;;23.80;99.90;;;;;;5054610;28;20053;-73
2023/08/23 10:43:14;;;;;;;27.17;8.32;;;23.70;99.90;;;;;;5054398;28;19990;-73
2023/08/23 10:46:02;;;;;;;23.63;8.90;;;23.70;99.90;;;;;;5052844;28;20098;-72
2023/08/23 10:48:28;;;;;;;27.23;8.52;;;23.70;99.90;;;;;;5054613;28;20052;-72
2023/08/23 10:50:54;;;;;;;28.73;9.60;;;23.70;99.90;;;;;;5053021;28;20048;-73
2023/08/23 10:53:22;;;;;;;25.80;10.68;;;23.70;99.90;;;;;;5054122;28;20099;-73
2023/08/23 10:55:48;;;;;;;26.02;10.57;;;23.70;99.90;;;;;;5053432;28;20129;-72
2023/08/23 10:58:14;;;;;;;;;;;23.80;99.90;;;;;;5087372;28;20044;-73
2023/08/23 11:00:42;;;;;;;26.35;10.48;;;23.80;99.90;;;;;;5053952;28;20467;-73
2023/08/23 11:03:10;;;;;;;28.58;10.82;;;23.90;99.90;;;;;;5053004;28;20424;-73
2023/08/23 11:05:36;;;;;;;25.60;9.75;;;24.10;99.90;;;;;;5052582;28;20045;-73
2023/08/23 11:08:02;;;;;;;26.88;9.30;;;24.10;99.90;;;;;;5054509;28;20041;-73
2023/08/23 11:10:29;;;;;;;28.20;9.63;;;24.20;99.90;;;;;;5053883;28;20496;-73
2023/08/23 11:12:55;;;;;;;22.90;8.60;;;24.20;99.90;;;;;;5054099;28;20072;-74
2023/08/23 11:15:21;;;;;;;24.85;8.32;;;24.30;99.90;;;;;;5053656;28;20045;-72
2023/08/23 11:17:47;;;;;;;28.17;9.15;;;24.40;99.90;;;;;;5052421;28;20405;-73
2023/08/23 11:20:13;;;;;;;25.65;9.38;;;24.60;99.90;;;;;;5052446;28;20041;-72
2023/08/23 11:22:40;;;;;;;22.48;8.63;;;24.50;99.90;;;;;;5052380;28;20041;-72
2023/08/23 11:25:07;;;;;;;26.13;8.38;;;24.30;99.90;;;;;;5053374;28;20067;-73
2023/08/23 11:27:33;;;;;;;22.55;9.20;;;24.10;99.90;;;;;;5052010;28;20055;-73
2023/08/23 11:29:59;;;;;;;;;;;23.90;99.90;;;;;;5053296;28;20386;-73
2023/08/23 11:32:26;;;;;;;28.45;7.78;;;23.80;99.90;;;;;;5053445;28;19974;-72
2023/08/23 11:34:54;;;;;;;23.58;8.70;;;23.80;99.90;;;;;;5052476;28;20064;-74
2023/08/23 11:37:22;;;;;;;20.77;6.85;;;23.90;99.90;;;;;;5053407;28;20045;-73
2023/08/23 11:40:39;;;;;;;25.52;8.30;;;23.90;99.90;;;;;;5051536;28;20057;-74
2023/08/23 11:43:17;;;;;;;21.80;8.80;;;24.00;99.90;;;;;;5050929;28;20056;-73
2023/08/23 11:45:43;;;;;;;23.80;8.40;;;23.90;99.90;;;;;;5052446;28;20049;-74
2023/08/23 11:48:10;;;;;;;19.37;7.77;;;23.90;99.90;;;;;;5053187;28;20694;-73
2023/08/23 11:50:43;;;;;;;29.95;10.13;;;24.00;99.90;;;;;;5052134;28;20059;-74
2023/08/23 11:53:32;;;;;;;29.75;10.18;;;24.10;99.90;;;;;;5019285;28;20041;-73
2023/08/23 11:55:58;;;;;;;25.60;10.13;;;24.20;99.90;;;;;;5069289;28;20059;-73
2023/08/23 11:58:24;;;;;;;27.58;11.20;;;24.30;99.90;;;;;;5052069;28;20048;-73
2023/08/23 12:00:50;;;;;;;24.43;9.27;;;24.30;99.90;;;;;;5085773;28;20546;-73
2023/08/23 12:03:16;;;;;;;33.50;9.73;;;24.40;99.90;;;;;;5052129;28;20106;-74
2023/08/23 12:05:42;;;;;;;26.65;8.65;;;24.40;99.90;;;;;;5053729;28;20041;-74
2023/08/23 12:08:08;;;;;;;22.17;7.45;;;24.40;99.90;;;;;;5052588;28;20106;-73
2023/08/23 12:10:34;;;;;;;18.20;6.45;;;24.60;99.90;;;;;;5053547;28;20465;-75
2023/08/23 12:13:12;;;;;;;20.60;5.83;;;24.70;99.90;;;;;;5052179;28;20056;-73
2023/08/23 12:15:38;;;;;;;22.35;7.10;;;24.80;99.90;;;;;;5052713;28;20366;-73
2023/08/23 12:18:04;;;;;;;22.27;5.87;;;25.00;99.90;;;;;;5053089;28;20136;-73
2023/08/23 12:20:29;;;;;;;18.92;6.82;;;25.10;99.90;;;;;;5035667;28;20283;-71
2023/08/23 12:22:55;;;;;;;14.73;6.00;;;25.20;99.90;;;;;;5051914;28;20114;-73
2023/08/23 12:25:21;;;;;;;14.27;5.13;;;25.10;99.90;;;;;;5052960;28;20135;-73
2023/08/23 12:27:46;;;;;;;19.37;4.47;;;25.00;99.90;;;;;;5052871;28;20049;-74
2023/08/23 12:30:13;;;;;;;11.07;4.10;;;25.00;99.90;;;;;;5052987;28;20306;-72
2023/08/23 12:32:41;;;;;;;;;;;24.90;99.90;;;;;;5052235;28;20049;-73